Time;durP1;ratioP1;P1;durP2;ratioP2;P2;SDS_P1;SDS_P2;PMS_P1;PMS_P2;Temp;Humidity;BMP_temperature;BMP_pressure;BME280_temperature;BME280_humidity;BME280_pressure;Samples;Min_cycle;Max_cycle;Signal;HPM_P1;HPM_P2
2021/08/31 00:02:20;;;;;;;13.77;8.27;;;13.20;99.90;;;;;;4953070;28;20130;-70
2021/08/31 00:04:48;;;;;;;13.38;8.27;;;13.20;99.90;;;;;;4953116;28;20047;-70
2021/08/31 00:07:15;;;;;;;13.52;7.90;;;13.20;99.90;;;;;;4953141;28;20533;-70
2021/08/31 00:09:42;;;;;;;9.50;7.95;;;13.20;99.90;;;;;;4951379;28;20077;-72
2021/08/31 00:12:09;;;;;;;11.05;8.35;;;13.10;99.90;;;;;;4952800;28;20134;-66
2021/08/31 00:14:37;;;;;;;10.32;9.18;;;13.10;99.90;;;;;;4952814;28;20102;-68
2021/08/31 00:17:06;;;;;;;13.18;9.43;;;13.10;99.90;;;;;;4952637;28;20137;-71
2021/08/31 00:19:33;;;;;;;13.95;8.20;;;13.10;99.90;;;;;;4952651;28;20426;-67
2021/08/31 00:22:00;;;;;;;10.18;8.18;;;13.10;99.90;;;;;;4951240;28;20059;-72
2021/08/31 00:24:27;;;;;;;12.82;8.63;;;13.10;99.90;;;;;;4952846;28;20050;-72
2021/08/31 00:26:54;;;;;;;10.85;8.30;;;13.10;99.90;;;;;;4952613;28;20418;-66
2021/08/31 00:29:21;;;;;;;16.67;11.95;;;13.00;99.90;;;;;;4952575;28;20047;-73
2021/08/31 00:31:48;;;;;;;15.25;8.80;;;13.00;99.90;;;;;;4951029;28;20047;-69
2021/08/31 00:34:16;;;;;;;14.20;9.93;;;12.90;99.90;;;;;;4952486;28;20389;-71
2021/08/31 00:36:43;;;;;;;13.18;7.95;;;12.80;99.90;;;;;;4952565;28;20074;-73
2021/08/31 00:39:10;;;;;;;14.30;8.75;;;12.70;99.90;;;;;;4952613;28;20457;-72
2021/08/31 00:41:37;;;;;;;11.20;7.60;;;12.70;99.90;;;;;;4952270;28;20052;-67
2021/08/31 00:44:05;;;;;;;10.55;7.72;;;12.70;99.90;;;;;;4950999;28;20104;-68
2021/08/31 00:46:32;;;;;;;11.63;8.13;;;12.70;99.90;;;;;;4952233;28;20449;-73
2021/08/31 00:48:58;;;;;;;25.42;9.45;;;12.70;99.90;;;;;;4952439;28;20113;-72
2021/08/31 00:51:26;;;;;;;13.82;9.18;;;12.70;99.90;;;;;;4952651;28;20074;-77
2021/08/31 00:53:54;;;;;;;13.05;8.48;;;12.70;99.90;;;;;;4951329;28;20062;-68
2021/08/31 00:56:21;;;;;;;12.85;8.00;;;12.70;99.90;;;;;;4952016;28;20047;-66
2021/08/31 00:58:49;;;;;;;9.60;7.70;;;12.70;99.90;;;;;;4952643;28;20071;-71
2021/08/31 01:01:25;;;;;;;10.68;8.18;;;12.70;99.90;;;;;;4952876;28;20075;-69
2021/08/31 01:03:53;;;;;;;10.00;8.90;;;12.70;99.90;;;;;;4966006;28;20047;-66
2021/08/31 01:06:20;;;;;;;14.10;8.25;;;12.70;99.90;;;;;;4970920;28;20149;-67
2021/08/31 01:08:47;;;;;;;9.20;7.20;;;12.60;99.90;;;;;;4970855;28;20427;-67
2021/08/31 01:11:15;;;;;;;10.40;7.55;;;12.60;99.90;;;;;;4970554;28;20078;-68
2021/08/31 01:13:43;;;;;;;7.97;7.18;;;12.60;99.90;;;;;;4969385;28;20074;-69
2021/08/31 01:16:10;;;;;;;11.20;7.13;;;12.60;99.90;;;;;;4970476;28;20134;-68
2021/08/31 01:18:37;;;;;;;9.18;7.32;;;12.60;99.90;;;;;;4970921;28;20209;-67
2021/08/31 01:21:04;;;;;;;8.05;6.65;;;12.50;99.90;;;;;;4970319;28;20066;-67
2021/08/31 01:23:31;;;;;;;10.40;6.82;;;12.50;99.90;;;;;;4970728;28;20133;-68
2021/08/31 01:25:59;;;;;;;8.15;6.30;;;12.50;99.90;;;;;;4968867;28;20093;-66
2021/08/31 01:28:32;;;;;;;11.27;7.90;;;12.40;99.90;;;;;;4969867;28;20075;-68
2021/08/31 01:31:00;;;;;;;10.00;6.45;;;12.40;99.90;;;;;;4970641;28;20047;-65
2021/08/31 01:33:30;;;;;;;10.73;7.75;;;12.40;99.90;;;;;;4970700;28;20469;-68
2021/08/31 01:35:58;;;;;;;12.15;7.95;;;12.40;99.90;;;;;;4968939;28;20135;-65
2021/08/31 01:38:24;;;;;;;10.82;8.57;;;12.30;99.90;;;;;;4970179;28;20142;-68
2021/08/31 01:40:51;;;;;;;12.70;7.53;;;12.30;99.90;;;;;;4970146;28;20089;-67
2021/08/31 01:43:23;;;;;;;16.17;9.10;;;12.30;99.90;;;;;;4970172;28;20051;-68
2021/08/31 01:45:50;;;;;;;11.55;8.55;;;12.40;99.90;;;;;;4968749;28;20075;-67
2021/08/31 01:48:17;;;;;;;17.42;10.55;;;12.40;99.90;;;;;;4969891;28;20051;-69
2021/08/31 01:50:44;;;;;;;11.98;8.55;;;12.40;99.90;;;;;;4969975;28;20127;-69
2021/08/31 01:53:12;;;;;;;13.10;8.10;;;12.40;99.90;;;;;;4969791;28;20093;-69
2021/08/31 01:55:39;;;;;;;9.80;8.40;;;12.50;99.90;;;;;;4970139;28;20529;-66
2021/08/31 01:58:06;;;;;;;11.52;9.70;;;12.50;99.90;;;;;;4968562;28;20086;-69
2021/08/31 02:00:33;;;;;;;13.55;9.55;;;12.50;99.90;;;;;;4969719;28;20134;-65
2021/08/31 02:03:00;;;;;;;17.58;9.35;;;12.60;99.90;;;;;;4969721;28;20055;-71
2021/08/31 02:05:27;;;;;;;14.63;10.18;;;12.60;99.90;;;;;;4970105;28;20042;-70
2021/08/31 02:07:54;;;;;;;16.92;10.32;;;12.60;99.90;;;;;;4968424;28;20050;-66
2021/08/31 02:10:22;;;;;;;11.75;9.57;;;12.60;99.90;;;;;;4970088;28;20117;-67
2021/08/31 02:12:49;;;;;;;17.88;10.57;;;12.50;99.90;;;;;;4970246;28;20078;-69
2021/08/31 02:15:16;;;;;;;12.13;9.20;;;12.60;99.90;;;;;;4973395;28;20081;-67
2021/08/31 02:17:43;;;;;;;15.70;9.63;;;12.60;99.90;;;;;;4972302;28;20497;-68
2021/08/31 02:20:11;;;;;;;11.73;8.80;;;12.60;99.90;;;;;;4973581;28;20066;-67
2021/08/31 02:22:38;;;;;;;14.48;10.75;;;12.60;99.90;;;;;;4973754;28;20058;-64
2021/08/31 02:25:06;;;;;;;12.40;9.27;;;12.70;99.90;;;;;;4973277;28;20050;-72
2021/08/31 02:27:33;;;;;;;13.65;7.90;;;12.70;99.90;;;;;;4973583;28;20078;-68
2021/08/31 02:30:00;;;;;;;14.43;10.10;;;12.70;99.90;;;;;;4972649;28;20413;-66
2021/08/31 02:32:27;;;;;;;10.25;8.00;;;12.80;99.90;;;;;;4973386;28;20424;-68
2021/08/31 02:34:54;;;;;;;10.77;8.90;;;12.80;99.90;;;;;;4973462;28;20046;-66
2021/08/31 02:37:21;;;;;;;12.10;8.23;;;12.90;99.90;;;;;;4973189;28;20435;-69
2021/08/31 02:39:48;;;;;;;13.07;9.27;;;12.90;99.90;;;;;;4971923;28;20129;-68
2021/08/31 02:42:15;;;;;;;10.80;8.70;;;12.90;99.90;;;;;;4973107;28;20408;-70
2021/08/31 02:44:42;;;;;;;13.23;9.02;;;12.90;99.90;;;;;;4973005;28;20055;-66
2021/08/31 02:47:09;;;;;;;10.27;7.82;;;13.00;99.90;;;;;;4972934;28;20089;-68
2021/08/31 02:49:36;;;;;;;15.25;9.77;;;13.00;99.90;;;;;;4973660;28;20074;-66
2021/08/31 02:52:03;;;;;;;13.13;8.00;;;13.00;99.90;;;;;;4971553;28;20090;-70
2021/08/31 02:54:31;;;;;;;10.55;7.88;;;13.00;99.90;;;;;;4973113;28;20077;-70
2021/08/31 02:56:58;;;;;;;15.27;8.18;;;13.10;99.90;;;;;;4973161;28;20446;-72
2021/08/31 02:59:25;;;;;;;9.40;8.18;;;13.10;99.90;;;;;;4973031;28;20388;-69
2021/08/31 03:02:05;;;;;;;11.82;9.05;;;13.00;99.90;;;;;;4971498;28;20074;-67
2021/08/31 03:04:35;;;;;;;13.95;10.25;;;13.00;99.90;;;;;;4972938;28;20050;-67
2021/08/31 03:07:04;;;;;;;12.02;8.90;;;13.10;99.90;;;;;;4972618;28;20109;-68
2021/08/31 03:09:31;;;;;;;12.20;10.65;;;13.10;99.90;;;;;;4972974;28;20491;-67
2021/08/31 03:11:59;;;;;;;11.27;7.88;;;13.10;99.90;;;;;;4971554;28;20070;-68
2021/08/31 03:14:26;;;;;;;11.55;8.40;;;13.10;99.90;;;;;;4972870;28;20066;-67
2021/08/31 03:16:52;;;;;;;10.57;9.20;;;13.10;99.90;;;;;;4972391;28;20047;-67
2021/08/31 03:19:23;;;;;;;11.10;8.25;;;13.10;99.90;;;;;;4972750;28;20093;-66
2021/08/31 03:21:54;;;;;;;11.70;8.15;;;13.10;99.90;;;;;;4971188;28;20050;-68
2021/08/31 03:24:22;;;;;;;12.63;9.25;;;13.10;99.90;;;;;;4972401;28;20129;-65
2021/08/31 03:26:50;;;;;;;10.18;8.50;;;13.10;99.90;;;;;;4971878;28;20077;-68
2021/08/31 03:29:17;;;;;;;11.02;7.82;;;13.10;99.90;;;;;;4972569;28;20468;-66
2021/08/31 03:31:44;;;;;;;17.55;10.02;;;13.10;99.90;;;;;;4971248;28;20362;-69
2021/08/31 03:34:11;;;;;;;13.63;9.35;;;13.10;99.90;;;;;;4972569;28;20486;-70
2021/08/31 03:36:38;;;;;;;12.75;10.27;;;13.10;99.90;;;;;;4972240;28;20134;-72
2021/08/31 03:39:05;;;;;;;14.23;9.35;;;13.10;99.90;;;;;;4972368;28;20458;-71
2021/08/31 03:41:33;;;;;;;14.05;10.32;;;13.10;99.90;;;;;;4972622;28;20109;-64
2021/08/31 03:44:00;;;;;;;13.63;9.20;;;13.10;99.90;;;;;;4970559;28;20385;-68
2021/08/31 03:46:27;;;;;;;15.43;9.45;;;13.10;99.90;;;;;;4972625;28;20128;-70
2021/08/31 03:48:54;;;;;;;11.98;8.05;;;13.20;99.90;;;;;;4971977;28;20429;-68
2021/08/31 03:51:21;;;;;;;13.82;9.73;;;13.20;99.90;;;;;;4971990;28;20383;-69
2021/08/31 03:53:48;;;;;;;15.35;10.43;;;13.20;99.90;;;;;;4970733;28;20154;-71
2021/08/31 03:56:15;;;;;;;14.75;10.48;;;13.20;99.90;;;;;;4972560;28;20497;-64
2021/08/31 03:58:42;;;;;;;14.70;10.50;;;13.30;99.90;;;;;;4972663;28;20381;-69
2021/08/31 04:01:09;;;;;;;15.25;10.75;;;13.40;99.90;;;;;;4972355;28;20155;-69
2021/08/31 04:03:36;;;;;;;14.23;10.82;;;13.40;99.90;;;;;;4972779;28;20137;-71
2021/08/31 04:06:03;;;;;;;12.57;10.02;;;13.40;99.90;;;;;;4970613;28;20133;-68
2021/08/31 04:08:30;;;;;;;17.20;11.30;;;13.50;99.90;;;;;;4971481;28;20054;-71
2021/08/31 04:10:57;;;;;;;18.63;12.10;;;13.50;99.90;;;;;;4971394;28;20153;-66
2021/08/31 04:13:24;;;;;;;14.45;10.63;;;13.50;99.90;;;;;;4971911;28;20051;-68
2021/08/31 04:15:51;;;;;;;13.85;10.45;;;13.50;99.90;;;;;;4969924;28;20051;-67
2021/08/31 04:18:17;;;;;;;16.58;10.73;;;13.50;99.90;;;;;;4972035;28;20081;-69
2021/08/31 04:20:44;;;;;;;14.90;11.20;;;13.50;99.90;;;;;;4971207;28;20559;-68
2021/08/31 04:23:11;;;;;;;18.52;12.27;;;13.50;99.90;;;;;;4971412;28;20047;-66
2021/08/31 04:25:39;;;;;;;15.95;12.60;;;13.50;99.90;;;;;;4971320;28;20536;-67
2021/08/31 04:28:06;;;;;;;16.23;11.23;;;13.50;99.90;;;;;;4950541;28;20052;-69
2021/08/31 04:30:33;;;;;;;14.85;11.23;;;13.50;99.90;;;;;;4952272;28;20134;-69
2021/08/31 04:33:00;;;;;;;19.25;12.23;;;13.50;99.90;;;;;;4951845;28;20106;-66
2021/08/31 04:35:27;;;;;;;16.00;10.73;;;13.50;99.90;;;;;;4952613;28;20450;-68
2021/08/31 04:37:54;;;;;;;14.50;10.60;;;13.50;99.90;;;;;;4950605;28;20520;-67
2021/08/31 04:40:22;;;;;;;17.17;11.38;;;13.60;99.90;;;;;;4952396;28;20485;-69
2021/08/31 04:42:50;;;;;;;17.58;11.68;;;13.60;99.90;;;;;;4952330;28;20055;-70
2021/08/31 04:45:17;;;;;;;16.23;11.48;;;13.60;99.90;;;;;;4952424;28;20429;-69
2021/08/31 04:47:44;;;;;;;13.73;12.27;;;13.60;99.90;;;;;;4951204;28;20165;-68
2021/08/31 04:50:11;;;;;;;17.05;12.50;;;13.70;99.90;;;;;;4952608;28;20468;-68
2021/08/31 04:52:38;;;;;;;18.27;11.90;;;13.70;99.90;;;;;;4952195;28;20070;-77
2021/08/31 04:55:05;;;;;;;14.73;10.25;;;13.70;99.90;;;;;;4951666;28;20201;-66
2021/08/31 04:57:32;;;;;;;15.30;11.88;;;13.80;99.90;;;;;;4952068;28;20129;-70
2021/08/31 04:59:59;;;;;;;13.70;10.65;;;13.80;99.90;;;;;;4950499;28;20498;-70
2021/08/31 05:02:26;;;;;;;15.18;10.88;;;13.80;99.90;;;;;;4951659;28;20110;-73
2021/08/31 05:04:55;;;;;;;14.38;10.05;;;13.80;99.90;;;;;;4951689;28;20390;-71
2021/08/31 05:07:23;;;;;;;10.18;8.73;;;13.80;99.90;;;;;;4966429;28;20043;-68
2021/08/31 05:09:50;;;;;;;15.82;10.63;;;13.80;99.90;;;;;;4950482;28;20071;-68
2021/08/31 05:12:16;;;;;;;15.82;8.65;;;13.90;99.90;;;;;;4951634;28;20119;-70
2021/08/31 05:14:43;;;;;;;11.10;9.05;;;13.90;99.90;;;;;;4951697;28;20151;-73
2021/08/31 05:17:10;;;;;;;14.82;9.73;;;13.90;99.90;;;;;;4951799;28;20462;-66
2021/08/31 05:19:37;;;;;;;14.55;9.38;;;13.90;99.90;;;;;;4951860;28;20102;-67
2021/08/31 05:22:04;;;;;;;15.38;9.95;;;14.00;99.90;;;;;;4950267;28;20426;-71
2021/08/31 05:24:32;;;;;;;12.18;9.60;;;14.00;99.90;;;;;;4951843;28;20278;-68
2021/08/31 05:26:59;;;;;;;11.52;9.02;;;14.10;99.90;;;;;;4951454;28;20139;-70
2021/08/31 05:29:26;;;;;;;13.68;8.32;;;14.10;99.90;;;;;;4951958;28;20051;-75
2021/08/31 05:31:53;;;;;;;12.93;8.90;;;14.20;99.90;;;;;;4950198;28;20047;-71
2021/08/31 05:34:20;;;;;;;15.93;9.20;;;14.20;99.90;;;;;;4951757;28;20157;-64
2021/08/31 05:36:47;;;;;;;10.05;8.63;;;14.20;99.90;;;;;;4951255;28;20106;-72
2021/08/31 05:39:14;;;;;;;16.95;10.30;;;14.30;99.90;;;;;;4951629;28;20135;-65
2021/08/31 05:41:41;;;;;;;15.82;9.02;;;14.30;99.90;;;;;;4949947;28;20130;-71
2021/08/31 05:44:08;;;;;;;13.30;8.80;;;14.40;99.90;;;;;;4951502;28;20166;-74
2021/08/31 05:46:35;;;;;;;14.25;10.05;;;14.40;99.90;;;;;;4951386;28;20055;-66
2021/08/31 05:49:02;;;;;;;11.63;9.32;;;14.40;99.90;;;;;;4952795;28;20516;-65
2021/08/31 05:51:29;;;;;;;12.23;9.60;;;14.40;99.90;;;;;;4955100;28;20055;-68
2021/08/31 05:53:56;;;;;;;12.48;8.48;;;14.50;99.90;;;;;;4953434;28;20055;-70
2021/08/31 05:56:23;;;;;;;13.38;7.65;;;14.50;99.90;;;;;;4955106;28;20086;-69
2021/08/31 05:58:50;;;;;;;10.55;7.85;;;14.50;99.90;;;;;;4955194;28;20057;-75
2021/08/31 06:01:17;;;;;;;12.07;7.40;;;14.50;99.90;;;;;;4955308;28;20142;-67
2021/08/31 06:03:48;;;;;;;12.38;9.25;;;14.50;99.90;;;;;;4953605;28;20047;-65
2021/08/31 06:06:18;;;;;;;11.43;8.45;;;14.60;99.90;;;;;;4955451;28;20071;-74
2021/08/31 06:08:44;;;;;;;14.82;7.82;;;14.60;99.90;;;;;;4955414;28;20051;-74
2021/08/31 06:11:13;;;;;;;12.43;7.95;;;14.60;99.90;;;;;;4955391;28;20047;-65
2021/08/31 06:13:39;;;;;;;12.93;8.90;;;14.60;99.90;;;;;;4955417;28;20047;-71
2021/08/31 06:16:06;;;;;;;17.55;7.32;;;14.60;99.90;;;;;;4953335;28;20051;-73
2021/08/31 06:18:34;;;;;;;11.57;7.70;;;14.60;99.90;;;;;;4955215;28;20129;-68
2021/08/31 06:21:01;;;;;;;8.68;7.00;;;14.60;99.90;;;;;;4954927;28;20182;-73
2021/08/31 06:23:28;;;;;;;11.45;8.60;;;14.60;99.90;;;;;;4954887;28;20110;-65
2021/08/31 06:25:55;;;;;;;10.73;8.05;;;14.60;99.90;;;;;;4953202;28;20085;-64
2021/08/31 06:28:22;;;;;;;10.05;7.78;;;14.60;99.90;;;;;;4954784;28;20505;-69
2021/08/31 06:30:49;;;;;;;9.32;6.75;;;14.60;99.90;;;;;;4954773;28;20130;-68
2021/08/31 06:33:16;;;;;;;11.85;7.18;;;14.60;99.90;;;;;;4954852;28;20098;-65
2021/08/31 06:35:43;;;;;;;12.95;7.35;;;14.70;99.90;;;;;;4953528;28;20434;-71
2021/08/31 06:38:09;;;;;;;11.85;7.85;;;14.60;99.90;;;;;;4954361;28;20081;-66
2021/08/31 06:40:36;;;;;;;11.30;7.55;;;14.60;99.90;;;;;;4954763;28;20082;-71
2021/08/31 06:43:03;;;;;;;9.52;6.55;;;14.60;99.90;;;;;;4954742;28;20082;-67
2021/08/31 06:45:30;;;;;;;16.33;8.23;;;14.60;99.90;;;;;;4954585;28;20067;-66
2021/08/31 06:47:57;;;;;;;9.43;7.35;;;14.50;99.90;;;;;;4953261;28;20481;-68
2021/08/31 06:50:24;;;;;;;11.07;7.85;;;14.50;99.90;;;;;;4954654;28;20138;-68
2021/08/31 06:52:51;;;;;;;11.02;7.88;;;14.50;99.90;;;;;;4954468;28;20486;-71
2021/08/31 06:55:18;;;;;;;11.20;7.18;;;14.50;99.90;;;;;;4954273;28;20097;-69
2021/08/31 06:57:45;;;;;;;11.00;7.45;;;14.50;99.90;;;;;;4952912;28;20059;-66
2021/08/31 07:00:12;;;;;;;7.45;6.40;;;14.50;99.90;;;;;;4953062;28;20486;-67
2021/08/31 07:02:40;;;;;;;11.38;6.35;;;14.50;99.90;;;;;;4953940;28;20050;-68
2021/08/31 07:05:07;;;;;;;9.48;6.53;;;14.50;99.90;;;;;;4953999;28;20055;-70
2021/08/31 07:07:34;;;;;;;9.50;7.90;;;14.60;99.90;;;;;;4954144;28;20048;-72
2021/08/31 07:10:02;;;;;;;9.93;6.22;;;14.70;99.90;;;;;;4952674;28;20130;-68
2021/08/31 07:12:28;;;;;;;9.82;6.90;;;14.70;99.90;;;;;;4954151;28;20471;-72
2021/08/31 07:14:57;;;;;;;11.00;8.13;;;14.70;99.90;;;;;;4953956;28;20081;-65
2021/08/31 07:17:25;;;;;;;8.70;6.55;;;14.80;99.90;;;;;;4954273;28;20093;-68
2021/08/31 07:19:52;;;;;;;7.55;6.03;;;14.80;99.90;;;;;;4952495;28;20078;-65
2021/08/31 07:22:20;;;;;;;11.55;7.25;;;14.80;99.90;;;;;;4953556;28;20070;-65
2021/08/31 07:24:47;;;;;;;8.15;6.72;;;14.80;99.90;;;;;;4953103;28;20074;-69
2021/08/31 07:27:15;;;;;;;13.30;6.60;;;14.70;99.90;;;;;;4952755;28;20063;-65
2021/08/31 07:29:42;;;;;;;8.10;6.88;;;14.60;99.90;;;;;;4952571;28;20051;-67
2021/08/31 07:32:09;;;;;;;10.65;7.55;;;14.70;99.90;;;;;;4953744;28;20048;-65
2021/08/31 07:34:39;;;;;;;9.13;7.03;;;14.70;99.90;;;;;;4953549;28;20134;-71
2021/08/31 07:37:07;;;;;;;6.85;5.88;;;14.70;99.90;;;;;;4953388;28;20059;-67
2021/08/31 07:39:35;;;;;;;9.70;7.43;;;14.60;99.90;;;;;;4953686;28;20167;-67
2021/08/31 07:42:02;;;;;;;8.85;6.47;;;14.60;99.90;;;;;;4952098;28;20511;-65
2021/08/31 07:44:29;;;;;;;9.32;7.43;;;14.50;99.90;;;;;;4953991;28;20083;-68
2021/08/31 07:46:57;;;;;;;9.70;6.25;;;14.50;99.90;;;;;;4953256;28;20075;-65
2021/08/31 07:49:24;;;;;;;7.85;6.25;;;14.50;99.90;;;;;;4953989;28;20047;-67
2021/08/31 07:51:51;;;;;;;9.02;6.75;;;14.50;99.90;;;;;;4951936;28;20454;-68
2021/08/31 07:54:18;;;;;;;8.93;6.45;;;14.50;99.90;;;;;;4968380;28;20075;-65
2021/08/31 07:56:46;;;;;;;12.70;7.05;;;14.50;99.90;;;;;;4953071;28;20051;-67
2021/08/31 07:59:13;;;;;;;9.60;7.20;;;14.60;99.90;;;;;;4947165;28;20547;-67
2021/08/31 08:01:40;;;;;;;11.13;7.35;;;14.60;99.90;;;;;;4951388;28;20094;-68
2021/08/31 08:04:07;;;;;;;13.43;7.95;;;14.70;99.90;;;;;;4953098;28;20043;-67
2021/08/31 08:06:35;;;;;;;6.55;5.80;;;14.70;99.90;;;;;;4952730;28;20101;-73
2021/08/31 08:09:03;;;;;;;12.70;6.43;;;14.80;99.90;;;;;;4953029;28;20515;-64
2021/08/31 08:11:30;;;;;;;10.70;7.78;;;14.80;99.90;;;;;;4952715;28;20509;-67
2021/08/31 08:13:57;;;;;;;7.85;6.57;;;14.90;99.90;;;;;;4951773;28;20071;-70
2021/08/31 08:16:24;;;;;;;6.95;6.07;;;14.90;99.90;;;;;;4952665;28;20055;-65
2021/08/31 08:18:51;;;;;;;8.85;7.25;;;15.00;99.90;;;;;;4952371;28;20138;-70
2021/08/31 08:21:18;;;;;;;10.15;6.43;;;15.00;99.90;;;;;;4953121;28;20071;-70
2021/08/31 08:23:45;;;;;;;8.57;6.38;;;15.10;99.90;;;;;;4951104;28;20081;-68
2021/08/31 08:26:13;;;;;;;6.72;5.88;;;15.10;99.90;;;;;;4952827;28;20067;-68
2021/08/31 08:28:40;;;;;;;8.40;6.57;;;15.10;99.90;;;;;;4952657;28;20074;-67
2021/08/31 08:31:07;;;;;;;8.05;6.05;;;15.10;99.90;;;;;;4952795;28;20055;-67
2021/08/31 08:33:34;;;;;;;9.05;7.47;;;15.10;99.90;;;;;;4952560;28;20075;-67
2021/08/31 08:36:04;;;;;;;9.25;6.70;;;15.10;99.90;;;;;;4950125;28;20058;-70
2021/08/31 08:38:32;;;;;;;11.63;5.80;;;15.20;99.90;;;;;;4951056;28;20071;-71
2021/08/31 08:41:04;;;;;;;9.35;5.90;;;15.20;99.90;;;;;;4950846;28;20071;-70
2021/08/31 08:43:35;;;;;;;8.05;6.47;;;15.30;99.90;;;;;;4951596;28;20051;-73
2021/08/31 08:46:04;;;;;;;8.02;6.32;;;15.30;99.90;;;;;;4950640;28;20079;-68
2021/08/31 08:48:32;;;;;;;7.85;5.90;;;15.30;99.90;;;;;;4950798;28;20199;-69
2021/08/31 08:51:02;;;;;;;9.48;6.30;;;15.30;99.90;;;;;;4945430;28;20039;-70
2021/08/31 08:53:32;;;;;;;7.78;6.32;;;15.40;99.90;;;;;;4951906;28;20127;-65
2021/08/31 08:56:01;;;;;;;6.90;5.72;;;15.40;99.90;;;;;;4950622;28;20070;-71
2021/08/31 08:58:28;;;;;;;10.80;6.15;;;15.40;99.90;;;;;;4951800;28;20055;-67
2021/08/31 09:01:04;;;;;;;7.35;6.03;;;15.30;99.90;;;;;;4951524;28;20394;-66
2021/08/31 09:03:37;;;;;;;8.18;5.88;;;15.20;99.90;;;;;;4951970;28;20055;-70
2021/08/31 09:06:11;;;;;;;11.40;6.13;;;15.30;99.90;;;;;;4950348;28;20071;-73
2021/08/31 09:08:59;;;;;;;7.22;6.10;;;15.20;99.90;;;;;;4951989;28;20106;-70
2021/08/31 09:11:32;;;;;;;7.68;6.75;;;15.30;99.90;;;;;;4951848;28;20061;-71
2021/08/31 09:14:21;;;;;;;8.75;6.57;;;15.30;99.90;;;;;;4950178;28;20054;-68
2021/08/31 09:16:51;;;;;;;8.00;6.00;;;15.40;99.90;;;;;;4952041;28;20047;-66
2021/08/31 09:19:27;;;;;;;8.95;6.13;;;15.40;99.90;;;;;;4951551;28;20135;-74
2021/08/31 09:22:17;;;;;;;7.97;5.55;;;15.40;99.90;;;;;;4950538;28;20047;-67
2021/08/31 09:25:08;;;;;;;7.67;6.07;;;15.40;99.90;;;;;;4951396;28;20466;-69
2021/08/31 09:27:36;;;;;;;9.32;6.03;;;15.40;99.90;;;;;;4952107;28;20278;-64
2021/08/31 09:30:19;;;;;;;7.75;6.03;;;15.50;99.90;;;;;;4950025;28;20055;-66
2021/08/31 09:33:09;;;;;;;8.90;5.72;;;15.50;99.90;;;;;;4951862;28;20437;-72
2021/08/31 09:35:42;;;;;;;7.18;4.57;;;15.60;99.90;;;;;;4951617;28;20407;-66
2021/08/31 09:38:14;;;;;;;8.05;5.80;;;15.50;99.90;;;;;;4964604;28;20442;-69
2021/08/31 09:40:46;;;;;;;7.88;6.45;;;15.40;99.90;;;;;;4951396;28;20078;-69
2021/08/31 09:43:21;;;;;;;10.60;6.38;;;15.30;99.90;;;;;;4951099;28;20126;-66
2021/08/31 09:45:50;;;;;;;8.88;6.47;;;15.20;99.90;;;;;;4949364;28;20111;-68
2021/08/31 09:48:19;;;;;;;11.25;6.00;;;15.20;99.90;;;;;;4951282;28;20110;-70
2021/08/31 09:50:51;;;;;;;9.85;5.65;;;15.20;99.90;;;;;;4951311;28;20067;-69
2021/08/31 09:53:20;;;;;;;10.70;7.15;;;15.20;99.90;;;;;;4950783;28;20046;-73
2021/08/31 09:56:04;;;;;;;10.10;7.85;;;15.30;99.90;;;;;;4949919;28;20071;-68
2021/08/31 09:58:33;;;;;;;8.13;6.97;;;15.30;99.90;;;;;;4951344;28;20051;-67
2021/08/31 10:01:00;;;;;;;7.28;5.97;;;15.40;99.90;;;;;;4950508;28;20047;-73
2021/08/31 10:03:28;;;;;;;8.68;5.82;;;15.40;99.90;;;;;;4950905;28;20069;-64
2021/08/31 10:05:58;;;;;;;10.27;7.20;;;15.40;99.90;;;;;;4949595;28;20086;-71
2021/08/31 10:08:25;;;;;;;9.48;6.78;;;15.40;99.90;;;;;;4950812;28;20087;-66
2021/08/31 10:10:54;;;;;;;7.93;5.80;;;15.40;99.90;;;;;;4950582;28;20051;-68
2021/08/31 10:13:25;;;;;;;9.00;5.95;;;15.40;99.90;;;;;;4951066;28;20067;-69
2021/08/31 10:15:55;;;;;;;7.65;5.47;;;15.40;99.90;;;;;;4949223;28;20051;-72
2021/08/31 10:18:27;;;;;;;7.88;5.15;;;15.40;99.90;;;;;;4951048;28;20094;-65
2021/08/31 10:21:00;;;;;;;8.57;6.20;;;15.50;99.90;;;;;;4950628;28;20472;-69
2021/08/31 10:23:52;;;;;;;9.63;7.38;;;15.50;99.90;;;;;;4950748;28;20062;-67
2021/08/31 10:26:35;;;;;;;8.27;6.40;;;15.60;99.90;;;;;;4968878;28;20078;-74
2021/08/31 10:29:14;;;;;;;8.32;6.40;;;15.50;99.90;;;;;;4970269;28;20058;-68
2021/08/31 10:31:43;;;;;;;12.60;6.47;;;15.50;99.90;;;;;;4968569;28;20409;-67
2021/08/31 10:34:32;;;;;;;8.77;6.57;;;15.50;99.90;;;;;;4970321;28;20429;-69
2021/08/31 10:37:00;;;;;;;7.35;5.43;;;15.60;99.90;;;;;;4973515;28;20085;-68
2021/08/31 10:40:00;;;;;;;9.10;6.57;;;15.70;99.90;;;;;;4973531;28;20089;-64
2021/08/31 10:42:26;;;;;;;7.30;6.30;;;15.70;99.90;;;;;;4933396;28;20074;-67
2021/08/31 10:44:58;;;;;;;7.25;5.90;;;15.80;99.90;;;;;;4952965;29;20551;-67
2021/08/31 10:47:37;;;;;;;6.70;5.50;;;15.80;99.90;;;;;;4954259;28;20047;-71
2021/08/31 10:50:08;;;;;;;8.27;5.05;;;15.80;99.90;;;;;;4953104;28;20146;-69
2021/08/31 10:53:01;;;;;;;8.48;5.90;;;15.80;99.90;;;;;;4954891;28;20397;-65
2021/08/31 10:55:28;;;;;;;7.82;5.53;;;15.80;99.90;;;;;;4954907;28;20393;-65
2021/08/31 10:58:09;;;;;;;9.73;5.05;;;15.90;99.90;;;;;;4953319;28;20479;-64
2021/08/31 11:00:39;;;;;;;6.20;5.63;;;16.00;99.90;;;;;;4954262;28;20090;-68
2021/08/31 11:03:06;;;;;;;9.52;5.72;;;16.00;99.90;;;;;;4953744;28;20106;-66
2021/08/31 11:05:34;;;;;;;6.32;4.32;;;16.00;99.90;;;;;;4954084;28;20110;-64
2021/08/31 11:08:01;;;;;;;6.07;4.30;;;16.00;99.90;;;;;;4952351;28;20409;-73
2021/08/31 11:10:35;;;;;;;8.23;4.85;;;16.00;99.90;;;;;;4954032;28;20411;-65
2021/08/31 11:13:16;;;;;;;7.50;5.30;;;15.90;99.90;;;;;;4954270;28;20446;-70
2021/08/31 11:15:44;;;;;;;6.90;5.22;;;15.90;99.90;;;;;;4952280;28;20058;-65
2021/08/31 11:18:13;;;;;;;9.52;5.38;;;15.90;99.90;;;;;;4953479;28;20494;-69
2021/08/31 11:20:41;;;;;;;10.40;7.05;;;16.00;99.90;;;;;;4953146;28;20051;-70
2021/08/31 11:23:21;;;;;;;6.13;4.75;;;16.00;99.90;;;;;;4953516;28;20051;-68
2021/08/31 11:25:58;;;;;;;7.47;6.22;;;16.00;99.90;;;;;;4951321;28;20102;-68
2021/08/31 11:28:28;;;;;;;11.85;4.68;;;16.00;99.90;;;;;;4953682;28;20059;-66
2021/08/31 11:31:03;;;;;;;6.80;5.22;;;16.00;99.90;;;;;;4953154;28;20130;-67
2021/08/31 11:33:31;;;;;;;6.90;4.65;;;15.90;99.90;;;;;;4953026;28;20084;-70
2021/08/31 11:36:04;;;;;;;7.78;5.18;;;15.90;99.90;;;;;;4951728;28;20074;-71
2021/08/31 11:38:40;;;;;;;7.18;5.75;;;15.90;99.90;;;;;;4967926;28;20047;-67
2021/08/31 11:41:43;;;;;;;6.47;4.95;;;15.90;99.90;;;;;;4953160;28;20078;-71
2021/08/31 11:44:21;;;;;;;7.53;4.38;;;15.80;99.90;;;;;;4949934;28;20133;-64
2021/08/31 11:46:52;;;;;;;6.30;4.13;;;15.80;99.90;;;;;;4951921;28;20469;-70
2021/08/31 11:49:24;;;;;;;13.50;4.57;;;15.70;99.90;;;;;;4953247;28;20473;-67
2021/08/31 11:52:18;;;;;;;6.95;4.63;;;15.50;99.90;;;;;;4951309;28;20074;-67
2021/08/31 11:54:56;;;;;;;9.88;4.10;;;15.40;99.90;;;;;;4953091;28;20067;-65
2021/08/31 11:57:31;;;;;;;6.53;4.18;;;15.30;99.90;;;;;;4953155;28;20055;-65
2021/08/31 11:59:58;;;;;;;7.57;5.82;;;15.30;99.90;;;;;;4951037;28;20082;-66
2021/08/31 12:02:27;;;;;;;10.82;4.88;;;15.40;99.90;;;;;;4951542;28;20491;-68
2021/08/31 12:04:58;;;;;;;6.63;5.43;;;15.40;99.90;;;;;;4952746;28;20052;-67
2021/08/31 12:07:28;;;;;;;8.32;4.35;;;15.60;99.90;;;;;;4952681;28;20052;-69
2021/08/31 12:09:59;;;;;;;5.72;3.83;;;15.50;99.90;;;;;;4951167;28;20110;-69
2021/08/31 12:12:28;;;;;;;6.53;4.20;;;15.50;99.90;;;;;;4952545;28;20067;-66
2021/08/31 12:14:55;;;;;;;4.22;3.38;;;15.50;99.90;;;;;;4952728;28;20075;-67
2021/08/31 12:17:43;;;;;;;8.98;4.55;;;15.50;99.90;;;;;;4952358;28;20047;-70
2021/08/31 12:20:23;;;;;;;6.05;3.38;;;15.60;99.90;;;;;;4950957;28;20047;-69
2021/08/31 12:22:51;;;;;;;4.17;2.87;;;15.80;99.90;;;;;;4950686;28;20442;-70
2021/08/31 12:25:20;;;;;;;4.18;3.47;;;15.80;99.90;;;;;;4952129;28;20051;-71
2021/08/31 12:27:50;;;;;;;5.22;3.28;;;15.80;99.90;;;;;;4950961;28;20067;-69
2021/08/31 12:30:19;;;;;;;3.92;2.95;;;15.80;99.90;;;;;;4952312;28;20383;-67
2021/08/31 12:32:54;;;;;;;6.43;4.18;;;15.90;99.90;;;;;;4952638;28;20482;-66
2021/08/31 12:35:34;;;;;;;4.13;3.03;;;15.90;99.90;;;;;;4951719;28;20452;-64
2021/08/31 12:38:17;;;;;;;4.00;3.42;;;15.90;99.90;;;;;;4950711;28;20067;-68
2021/08/31 12:40:56;;;;;;;3.47;2.53;;;16.00;99.90;;;;;;4952199;28;20083;-67
2021/08/31 12:43:26;;;;;;;4.40;2.93;;;16.00;99.90;;;;;;4952082;28;20134;-65
2021/08/31 12:45:57;;;;;;;4.97;3.60;;;16.00;99.90;;;;;;4950628;28;20435;-69
2021/08/31 12:49:05;;;;;;;4.47;2.88;;;16.00;99.90;;;;;;4951241;28;20082;-65
2021/08/31 12:51:35;;;;;;;6.32;3.90;;;16.00;99.90;;;;;;4951073;28;20055;-68
2021/08/31 12:54:03;;;;;;;3.97;2.55;;;16.00;99.90;;;;;;4950348;28;20110;-67